Terminal Aerodrome Forecast
Issued by NWS Wilmington, OH

Current Version | Previous Version | Text Only | Print | Product List | Glossary Off
Versions: 1 2 3 4 5 6 7 8 9 10 11 12 13 14 15 16

012
FTUS41 KILN 031510 AAB
TAFCMH
TAF AMD
KCMH 031510Z 0315/0412 19012G21KT P6SM SCT015 OVC050
      TEMPO 0315/0316 BKN015
     FM031600 22014G21KT P6SM SCT025
     FM031700 24018G30KT P6SM BKN035
     FM040500 25013G23KT P6SM OVC025
     FM041000 26012KT P6SM OVC018=

USA.gov is the U.S. government's official web portal to all federal, state and local government web resources and services.